| time (UTC) | temp C | wind direction | speed KPH | gust KPH | rain 1hr cm | rain 24hr cm | rain mn cm | humidity % | barometer mb |
| 20260504151019 | 17 | 346 | 25.7 | 38.6 | 0.00 | 0.00 | 0.00 | 47 | 1002.8 |
| 20260504150520 | 17 | 345 | 25.7 | 40.2 | 0.00 | 0.00 | 0.00 | 48 | 1002.8 |
| 20260504141014 | 16 | 303 | 25.7 | 49.9 | 0.00 | 0.00 | 0.00 | 57 | 1002.8 |
| 20260504140514 | 16 | 323 | 30.6 | 41.8 | 0.00 | 0.00 | 0.00 | 57 | 1002.6 |
| 20260504130502 | 13 | 132 | 1.6 | 4.8 | 0.00 | 0.00 | 0.00 | 63 | 1002.0 |
| 20260504110543 | 8 | 148 | 1.6 | 4.8 | 0.00 | 0.00 | 0.00 | 75 | 1002.1 |
| 20260504100536 | 9 | 229 | 3.2 | 4.8 | 0.00 | 0.00 | 0.00 | 72 | 1002.9 |
| 20260504081530 | 9 | 159 | 1.6 | 3.2 | 0.00 | 0.00 | 0.00 | 73 | 1003.5 |
| 20260504081026 | 9 | 158 | 0.0 | 6.4 | 0.00 | 0.00 | 0.00 | 73 | 1003.6 |
| 20260504080525 | 9 | 159 | 3.2 | 6.4 | 0.00 | 0.00 | 0.00 | 73 | 1003.6 |
| 20260504050559 | 10 | 162 | 4.8 | 6.4 | 0.00 | 0.00 | 0.00 | 68 | 1006.1 |
| 20260504045557 | 11 | 167 | 3.2 | 4.8 | 0.00 | 0.00 | 0.00 | 66 | 1006.1 |
| 20260504045055 | 11 | 148 | 1.6 | 4.8 | 0.00 | 0.00 | 0.00 | 63 | 1006.2 |
| 20260504044557 | 11 | 148 | 1.6 | 3.2 | 0.00 | 0.00 | 0.00 | 62 | 1006.0 |
| 20260504044054 | 11 | 148 | 1.6 | 4.8 | 0.00 | 0.00 | 0.00 | 61 | 1006.1 |
| 20260504043654 | 11 | 148 | 1.6 | 4.8 | 0.00 | 0.00 | 0.00 | 61 | 1006.2 |
| 20260504043058 | 11 | 148 | 1.6 | 3.2 | 0.00 | 0.00 | 0.00 | 62 | 1006.2 |
| 20260504042554 | 11 | 148 | 0.0 | 4.8 | 0.00 | 0.00 | 0.00 | 61 | 1006.1 |
| 20260504042053 | 11 | 148 | 0.0 | 0.0 | 0.00 | 0.00 | 0.00 | 61 | 1006.1 |
| 20260504041551 | 11 | 158 | 0.0 | 0.0 | 0.00 | 0.00 | 0.00 | 61 | 1006.4 |
| 20260504041051 | 11 | 158 | 0.0 | 0.0 | 0.00 | 0.00 | 0.00 | 59 | 1006.4 |
| 20260504040551 | 11 | 158 | 0.0 | 0.0 | 0.00 | 0.00 | 0.00 | 61 | 1006.4 |
| 20260504040053 | 12 | 158 | 0.0 | 0.0 | 0.00 | 0.00 | 0.00 | 60 | 1006.6 |
| 20260504035551 | 12 | 158 | 0.0 | 0.0 | 0.00 | 0.00 | 0.00 | 58 | 1006.7 |
| 20260504035049 | 12 | 158 | 0.0 | 0.0 | 0.00 | 0.00 | 0.00 | 59 | 1006.7 |
| 20260504034556 | 12 | 158 | 0.0 | 0.0 | 0.00 | 0.00 | 0.00 | 57 | 1006.8 |
| 20260504034053 | 12 | 158 | 0.0 | 0.0 | 0.00 | 0.00 | 0.00 | 57 | 1006.9 |
| 20260504033548 | 12 | 158 | 0.0 | 0.0 | 0.00 | 0.00 | 0.00 | 56 | 1007.0 |
| 20260504033048 | 12 | 158 | 0.0 | 0.0 | 0.00 | 0.00 | 0.00 | 57 | 1007.1 |
| 20260504032550 | 12 | 158 | 0.0 | 0.0 | 0.00 | 0.00 | 0.00 | 58 | 1007.0 |
| 20260504032048 | 12 | 158 | 0.0 | 0.0 | 0.00 | 0.00 | 0.00 | 58 | 1007.1 |
| 20260504031548 | 13 | 158 | 0.0 | 0.0 | 0.00 | 0.00 | 0.00 | 57 | 1007.1 |
| 20260504031047 | 13 | 158 | 0.0 | 0.0 | 0.00 | 0.00 | 0.00 | 56 | 1007.1 |
| 20260504030550 | 13 | 158 | 0.0 | 0.0 | 0.00 | 0.00 | 0.00 | 55 | 1007.1 |
| 20260504030047 | 13 | 158 | 0.0 | 0.0 | 0.00 | 0.00 | 0.00 | 53 | 1007.1 |
| 20260504025547 | 13 | 158 | 0.0 | 0.0 | 0.00 | 0.00 | 0.00 | 53 | 1007.1 |
| 20260504025047 | 14 | 158 | 0.0 | 1.6 | 0.00 | 0.00 | 0.00 | 52 | 1007.0 |
| 20260504024551 | 14 | 158 | 0.0 | 1.6 | 0.00 | 0.00 | 0.00 | 52 | 1007.1 |
| 20260504024046 | 14 | 158 | 0.0 | 1.6 | 0.00 | 0.00 | 0.00 | 52 | 1007.0 |
| 20260504023546 | 15 | 158 | 0.0 | 3.2 | 0.00 | 0.00 | 0.00 | 51 | 1007.0 |
| 20260504023046 | 15 | 158 | 1.6 | 3.2 | 0.00 | 0.00 | 0.00 | 49 | 1006.9 |
| 20260504022548 | 15 | 158 | 0.0 | 4.8 | 0.00 | 0.00 | 0.00 | 48 | 1006.9 |
| 20260504022046 | 15 | 143 | 3.2 | 4.8 | 0.00 | 0.00 | 0.00 | 47 | 1007.0 |
| 20260504021551 | 16 | 243 | 3.2 | 4.8 | 0.00 | 0.00 | 0.00 | 47 | 1007.0 |
| 20260504021049 | 16 | 243 | 1.6 | 3.2 | 0.00 | 0.00 | 0.00 | 47 | 1007.0 |
| 20260504020547 | 16 | 243 | 1.6 | 3.2 | 0.00 | 0.00 | 0.00 | 47 | 1007.0 |
| 20260504020044 | 17 | 243 | 1.6 | 3.2 | 0.00 | 0.00 | 0.00 | 46 | 1007.1 |
| 20260504015544 | 17 | 243 | 1.6 | 3.2 | 0.00 | 0.00 | 0.00 | 44 | 1007.1 |
| 20260504015044 | 17 | 243 | 1.6 | 3.2 | 0.00 | 0.00 | 0.00 | 43 | 1007.1 |
| 20260504014544 | 18 | 243 | 0.0 | 3.2 | 0.00 | 0.00 | 0.00 | 41 | 1007.3 |
| 20260504014044 | 18 | 243 | 1.6 | 3.2 | 0.00 | 0.00 | 0.00 | 39 | 1007.2 |
| 20260504013543 | 18 | 243 | 1.6 | 4.8 | 0.00 | 0.00 | 0.00 | 39 | 1007.2 |
| 20260504013056 | 19 | 243 | 1.6 | 4.8 | 0.00 | 0.00 | 0.00 | 39 | 1007.2 |
| 20260504012543 | 19 | 242 | 1.6 | 6.4 | 0.00 | 0.00 | 0.00 | 38 | 1007.3 |
| 20260504012046 | 20 | 258 | 3.2 | 6.4 | 0.00 | 0.00 | 0.00 | 38 | 1007.3 |
| 20260504011543 | 20 | 255 | 3.2 | 12.9 | 0.00 | 0.00 | 0.00 | 37 | 1007.4 |
| 20260504011041 | 20 | 250 | 6.4 | 12.9 | 0.00 | 0.00 | 0.00 | 36 | 1007.4 |
| 20260504010541 | 21 | 280 | 8.0 | 11.3 | 0.00 | 0.00 | 0.00 | 35 | 1007.4 |
| 20260504010042 | 21 | 264 | 8.0 | 11.3 | 0.00 | 0.00 | 0.00 | 34 | 1007.5 |
| 20260504005541 | 21 | 275 | 6.4 | 12.9 | 0.00 | 0.00 | 0.00 | 35 | 1007.5 |
| 20260504005039 | 21 | 262 | 6.4 | 12.9 | 0.00 | 0.00 | 0.00 | 34 | 1007.6 |
| 20260504004538 | 21 | 265 | 8.0 | 16.1 | 0.00 | 0.00 | 0.00 | 34 | 1007.6 |
| 20260504004040 | 21 | 277 | 9.7 | 17.7 | 0.00 | 0.00 | 0.00 | 33 | 1007.7 |
| 20260504003537 | 21 | 265 | 9.7 | 17.7 | 0.00 | 0.00 | 0.00 | 33 | 1007.7 |
| 20260504003039 | 22 | 257 | 9.7 | 16.1 | 0.00 | 0.00 | 0.00 | 33 | 1007.7 |
| 20260504002536 | 22 | 281 | 8.0 | 16.1 | 0.00 | 0.00 | 0.00 | 32 | 1007.8 |
| 20260504002036 | 22 | 259 | 3.2 | 16.1 | 0.00 | 0.00 | 0.00 | 35 | 1007.9 |
| 20260504001538 | 22 | 276 | 8.0 | 16.1 | 0.00 | 0.00 | 0.00 | 32 | 1008.0 |
| 20260504001036 | 22 | 287 | 6.4 | 16.1 | 0.00 | 0.00 | 0.00 | 32 | 1008.0 |
| 20260504000534 | 22 | 311 | 8.0 | 17.7 | 0.00 | 0.00 | 0.00 | 33 | 1008.0 |
| 20260504000035 | 22 | 299 | 8.0 | 17.7 | 0.00 | 0.00 | 0.00 | 32 | 1008.0 |
| 20260503235534 | 22 | 278 | 8.0 | 19.3 | 0.00 | 0.00 | 0.00 | 31 | 1008.0 |
| 20260503235033 | 22 | 250 | 11.3 | 19.3 | 0.00 | 0.00 | 0.00 | 31 | 1008.2 |
| 20260503234532 | 22 | 275 | 11.3 | 22.5 | 0.00 | 0.00 | 0.00 | 31 | 1008.2 |
| 20260503234032 | 22 | 259 | 12.9 | 22.5 | 0.00 | 0.00 | 0.00 | 30 | 1008.3 |
| 20260503233531 | 22 | 276 | 11.3 | 24.1 | 0.00 | 0.00 | 0.00 | 31 | 1008.3 |
| 20260503233031 | 22 | 281 | 16.1 | 27.4 | 0.00 | 0.00 | 0.00 | 30 | 1008.5 |
| 20260503232531 | 22 | 268 | 12.9 | 27.4 | 0.00 | 0.00 | 0.00 | 30 | 1008.4 |
| 20260503232032 | 22 | 294 | 11.3 | 22.5 | 0.00 | 0.00 | 0.00 | 31 | 1008.4 |
| 20260503231532 | 22 | 259 | 12.9 | 22.5 | 0.00 | 0.00 | 0.00 | 31 | 1008.5 |
| 20260503231032 | 22 | 276 | 9.7 | 20.9 | 0.00 | 0.00 | 0.00 | 33 | 1008.4 |
| 20260503230530 | 22 | 305 | 6.4 | 27.4 | 0.00 | 0.00 | 0.00 | 33 | 1008.5 |
| 20260503230040 | 22 | 294 | 12.9 | 27.4 | 0.00 | 0.00 | 0.00 | 33 | 1008.6 |
| 20260503225529 | 22 | 257 | 11.3 | 25.7 | 0.00 | 0.00 | 0.00 | 31 | 1008.6 |
| 20260503225031 | 22 | 270 | 17.7 | 25.7 | 0.00 | 0.00 | 0.00 | 31 | 1008.6 |
| 20260503224529 | 22 | 280 | 8.0 | 24.1 | 0.00 | 0.00 | 0.00 | 32 | 1008.6 |
| 20260503224027 | 22 | 242 | 14.5 | 24.1 | 0.00 | 0.00 | 0.00 | 32 | 1008.7 |
| 20260503223527 | 22 | 295 | 1.6 | 24.1 | 0.00 | 0.00 | 0.00 | 31 | 1008.6 |
| 20260503223026 | 22 | 300 | 9.7 | 24.1 | 0.00 | 0.00 | 0.00 | 31 | 1008.7 |
| 20260503222525 | 22 | 332 | 11.3 | 24.1 | 0.00 | 0.00 | 0.00 | 31 | 1008.8 |
| 20260503222024 | 22 | 293 | 9.7 | 20.9 | 0.00 | 0.00 | 0.00 | 32 | 1008.8 |
| 20260503221527 | 22 | 300 | 11.3 | 20.9 | 0.00 | 0.00 | 0.00 | 31 | 1008.8 |
| 20260503221024 | 22 | 304 | 11.3 | 27.4 | 0.00 | 0.00 | 0.00 | 31 | 1008.9 |
| 20260503220526 | 22 | 281 | 19.3 | 27.4 | 0.00 | 0.00 | 0.00 | 30 | 1008.9 |
| 20260503220024 | 22 | 293 | 9.7 | 19.3 | 0.00 | 0.00 | 0.00 | 33 | 1009.0 |
| 20260503215522 | 22 | 268 | 11.3 | 19.3 | 0.00 | 0.00 | 0.00 | 31 | 1009.0 |
| 20260503215023 | 22 | 270 | 9.7 | 25.7 | 0.00 | 0.00 | 0.00 | 31 | 1009.0 |
| 20260503214535 | 22 | 278 | 12.9 | 32.2 | 0.00 | 0.00 | 0.00 | 32 | 1009.1 |
| 20260503214024 | 22 | 279 | 14.5 | 32.2 | 0.00 | 0.00 | 0.00 | 33 | 1009.0 |
| 20260503213521 | 22 | 258 | 16.1 | 27.4 | 0.00 | 0.00 | 0.00 | 33 | 1009.1 |
| 20260503213020 | 22 | 282 | 16.1 | 27.4 | 0.00 | 0.00 | 0.00 | 33 | 1009.2 |
| 20260503212523 | 22 | 285 | 14.5 | 25.7 | 0.00 | 0.00 | 0.00 | 34 | 1009.2 |
| 20260503212018 | 22 | 300 | 9.7 | 25.7 | 0.00 | 0.00 | 0.00 | 34 | 1009.4 |
| 20260503211517 | 22 | 295 | 11.3 | 25.7 | 0.00 | 0.00 | 0.00 | 34 | 1009.4 |
| 20260503211018 | 22 | 325 | 16.1 | 27.4 | 0.00 | 0.00 | 0.00 | 33 | 1009.4 |
| 20260503210516 | 22 | 302 | 11.3 | 27.4 | 0.00 | 0.00 | 0.00 | 32 | 1009.7 |
| 20260503210016 | 21 | 342 | 16.1 | 25.7 | 0.00 | 0.00 | 0.00 | 32 | 1009.8 |
| 20260503205515 | 22 | 297 | 12.9 | 24.1 | 0.00 | 0.00 | 0.00 | 34 | 1009.8 |
| 20260503205015 | 21 | 354 | 14.5 | 29.0 | 0.00 | 0.00 | 0.00 | 33 | 1009.9 |
| 20260503204514 | 22 | 274 | 9.7 | 29.0 | 0.00 | 0.00 | 0.00 | 34 | 1009.9 |
| 20260503204014 | 22 | 335 | 14.5 | 30.6 | 0.00 | 0.00 | 0.00 | 34 | 1009.9 |
| 20260503203519 | 22 | 319 | 14.5 | 27.4 | 0.00 | 0.00 | 0.00 | 33 | 1009.9 |
| 20260503203015 | 22 | 342 | 9.7 | 25.7 | 0.00 | 0.00 | 0.00 | 33 | 1010.1 |
| 20260503202514 | 22 | 285 | 12.9 | 24.1 | 0.00 | 0.00 | 0.00 | 33 | 1010.1 |
| 20260503202015 | 22 | 293 | 14.5 | 25.7 | 0.00 | 0.00 | 0.00 | 34 | 1010.3 |
| 20260503201513 | 22 | 297 | 17.7 | 25.7 | 0.00 | 0.00 | 0.00 | 34 | 1010.3 |
| 20260503201011 | 22 | 249 | 9.7 | 24.1 | 0.00 | 0.00 | 0.00 | 33 | 1010.3 |
| 20260503200510 | 21 | 319 | 12.9 | 27.4 | 0.00 | 0.00 | 0.00 | 32 | 1010.3 |
| 20260503200012 | 22 | 331 | 9.7 | 25.7 | 0.00 | 0.00 | 0.00 | 35 | 1010.4 |
| 20260503195508 | 21 | 312 | 11.3 | 32.2 | 0.00 | 0.00 | 0.00 | 35 | 1010.4 |
| 20260503195009 | 21 | 296 | 17.7 | 29.0 | 0.00 | 0.00 | 0.00 | 35 | 1010.6 |
| 20260503194509 | 21 | 293 | 12.9 | 30.6 | 0.00 | 0.00 | 0.00 | 36 | 1010.5 |
| 20260503194011 | 21 | 293 | 17.7 | 30.6 | 0.00 | 0.00 | 0.00 | 34 | 1010.6 |
| 20260503193509 | 21 | 288 | 12.9 | 25.7 | 0.00 | 0.00 | 0.00 | 35 | 1010.6 |
| 20260503193009 | 21 | 290 | 12.9 | 25.7 | 0.00 | 0.00 | 0.00 | 34 | 1010.6 |
| 20260503192506 | 21 | 314 | 16.1 | 29.0 | 0.00 | 0.00 | 0.00 | 36 | 1010.6 |
| 20260503192008 | 21 | 358 | 19.3 | 33.8 | 0.00 | 0.00 | 0.00 | 34 | 1010.7 |
| 20260503191511 | 21 | 15 | 17.7 | 33.8 | 0.00 | 0.00 | 0.00 | 33 | 1010.8 |
| 20260503191006 | 21 | 255 | 9.7 | 32.2 | 0.00 | 0.00 | 0.00 | 36 | 1010.9 |
| 20260503190504 | 21 | 359 | 14.5 | 32.2 | 0.00 | 0.00 | 0.00 | 37 | 1010.9 |
| 20260503190003 | 21 | 343 | 14.5 | 30.6 | 0.00 | 0.00 | 0.00 | 37 | 1011.0 |
| 20260503185501 | 21 | 40 | 17.7 | 27.4 | 0.00 | 0.00 | 0.00 | 37 | 1010.9 |
| 20260503185001 | 21 | 328 | 11.3 | 29.0 | 0.00 | 0.00 | 0.00 | 36 | 1011.1 |
| 20260503184616 | 21 | 321 | 19.3 | 29.0 | 0.00 | 0.00 | 0.00 | 35 | 1011.1 |
| 20260503184059 | 21 | 332 | 14.5 | 29.0 | 0.00 | 0.00 | 0.00 | 36 | 1011.1 |
| 20260503183602 | 21 | 20 | 14.5 | 29.0 | 0.00 | 0.00 | 0.00 | 37 | 1011.2 |
| 20260503183059 | 21 | 301 | 14.5 | 29.0 | 0.00 | 0.00 | 0.00 | 38 | 1011.2 |
| 20260503182557 | 20 | 319 | 16.1 | 37.0 | 0.00 | 0.00 | 0.00 | 37 | 1011.4 |
| 20260503182059 | 20 | 328 | 22.5 | 37.0 | 0.00 | 0.00 | 0.00 | 37 | 1011.6 |
| 20260503181556 | 20 | 323 | 19.3 | 35.4 | 0.00 | 0.00 | 0.00 | 38 | 1011.8 |
| 20260503181056 | 20 | 326 | 12.9 | 30.6 | 0.00 | 0.00 | 0.00 | 38 | 1011.9 |
| 20260503180556 | 20 | 311 | 17.7 | 32.2 | 0.00 | 0.00 | 0.00 | 38 | 1011.9 |
| 20260503180100 | 20 | 344 | 24.1 | 33.8 | 0.00 | 0.00 | 0.00 | 37 | 1012.0 |
| 20260503175554 | 20 | 333 | 19.3 | 37.0 | 0.00 | 0.00 | 0.00 | 37 | 1012.1 |
| 20260503175054 | 20 | 351 | 22.5 | 37.0 | 0.00 | 0.00 | 0.00 | 37 | 1011.9 |
| 20260503174555 | 20 | 281 | 16.1 | 35.4 | 0.00 | 0.00 | 0.00 | 36 | 1012.0 |
| 20260503174052 | 20 | 335 | 17.7 | 35.4 | 0.00 | 0.00 | 0.00 | 39 | 1012.2 |
| 20260503173552 | 20 | 23 | 19.3 | 43.5 | 0.00 | 0.00 | 0.00 | 37 | 1012.3 |
| 20260503173053 | 20 | 312 | 16.1 | 33.8 | 0.00 | 0.00 | 0.00 | 37 | 1012.3 |
| 20260503172551 | 20 | 334 | 19.3 | 33.8 | 0.00 | 0.00 | 0.00 | 38 | 1012.4 |
| 20260503172053 | 20 | 330 | 22.5 | 30.6 | 0.00 | 0.00 | 0.00 | 37 | 1012.3 |
| 20260503171551 | 20 | 20 | 20.9 | 35.4 | 0.00 | 0.00 | 0.00 | 39 | 1012.3 |
| 20260503171050 | 20 | 348 | 24.1 | 35.4 | 0.00 | 0.00 | 0.00 | 36 | 1012.1 |
| 20260503170548 | 19 | 352 | 24.1 | 32.2 | 0.00 | 0.00 | 0.00 | 39 | 1012.3 |